Julian, Nebraska
Current Conditions -  °F | °C
As of 11:35 AM on Friday 31 Oct 2014 (Local Time) from KAFK Reporting Station
Clear Clear  
Wind Chill: 28°   Ceiling: Unl
Heat Index: 36°   Visibility: 10mi
Dew Point: 13°   Wind: 13mph
Humidity: 38%   Direction: 30°NNE
Pressure: 30.56"   Gusts: 17mph
Location:  40.51°N, 95.86°W
Report Text: KAFK 311635Z AUTO 03011G15KT 10SM CLR 02/M11 A3056 RMK AO2 T00241107
Loading
Personal Weather Stations






























Interactive Weather Map
Tropical Storm Tracking
New forecast layout! Learn more

10-Day Weather Forecast

Advertisements
Track Severe Weather on mobile